Time;durP1;ratioP1;P1;durP2;ratioP2;P2;SDS_P1;SDS_P2;PMS_P1;PMS_P2;Temp;Humidity;BMP_temperature;BMP_pressure;BME280_temperature;BME280_humidity;BME280_pressure;Samples;Min_cycle;Max_cycle;Signal;HPM_P1;HPM_P2
2021/04/12 00:00:07;;;;;;;0.85;0.75;;;5.20;99.90;;;;;;5053046;28;20173;-70
2021/04/12 00:02:56;;;;;;;0.90;0.90;;;5.20;99.90;;;;;;5051365;28;20189;-70
2021/04/12 00:05:34;;;;;;;0.50;0.50;;;5.10;99.90;;;;;;5035599;28;20185;-70
2021/04/12 00:08:19;;;;;;;0.60;0.60;;;5.10;99.90;;;;;;5033214;28;20249;-69
2021/04/12 00:10:54;;;;;;;0.68;0.68;;;5.10;99.90;;;;;;5036083;28;20165;-69
2021/04/12 00:13:39;;;;;;;0.55;0.55;;;5.00;99.90;;;;;;5052843;28;20169;-69
2021/04/12 00:16:21;;;;;;;0.85;0.85;;;5.00;99.90;;;;;;5034748;28;20225;-69
2021/04/12 00:19:14;;;;;;;1.00;1.00;;;5.00;99.90;;;;;;5039445;28;20226;-70
2021/04/12 00:22:08;;;;;;;1.38;1.25;;;5.00;99.90;;;;;;5037172;28;20194;-69
2021/04/12 00:24:47;;;;;;;1.15;1.15;;;4.90;99.90;;;;;;5039873;28;20184;-69
2021/04/12 00:27:37;;;;;;;1.40;1.30;;;4.90;99.90;;;;;;5051475;28;20240;-69
2021/04/12 00:30:36;;;;;;;0.77;0.63;;;4.80;99.90;;;;;;5044474;28;20169;-69
2021/04/12 00:33:53;;;;;;;0.90;0.90;;;4.80;99.90;;;;;;5052600;28;20192;-70
2021/04/12 00:36:40;;;;;;;0.50;0.50;;;4.70;99.90;;;;;;5035225;28;20300;-70
2021/04/12 00:39:12;;;;;;;0.98;0.98;;;4.70;99.90;;;;;;5045409;28;20698;-72
2021/04/12 00:41:58;;;;;;;0.80;0.50;;;4.60;99.90;;;;;;5054032;28;20183;-70
2021/04/12 00:44:30;;;;;;;1.10;0.95;;;4.60;99.90;;;;;;5041638;28;20184;-70
2021/04/12 00:47:14;;;;;;;0.80;0.68;;;4.60;99.90;;;;;;5056240;28;20181;-69
2021/04/12 00:49:45;;;;;;;1.50;1.15;;;4.60;99.90;;;;;;5041330;28;20167;-71
2021/04/12 00:52:38;;;;;;;0.80;0.80;;;4.50;99.90;;;;;;5054269;28;20182;-70
2021/04/12 00:55:20;;;;;;;0.60;0.60;;;4.50;99.90;;;;;;5035954;28;20178;-71
2021/04/12 00:57:58;;;;;;;2.53;1.00;;;4.50;99.90;;;;;;5041429;28;20181;-70
2021/04/12 01:00:34;;;;;;;4.32;2.65;;;4.50;99.90;;;;;;5056188;28;20192;-70
2021/04/12 01:03:36;;;;;;;0.80;0.80;;;4.50;99.90;;;;;;5054218;28;20203;-71
2021/04/12 01:06:41;;;;;;;0.40;0.40;;;4.50;99.90;;;;;;5055502;28;20234;-71
2021/04/12 01:09:39;;;;;;;0.47;0.47;;;4.40;99.90;;;;;;5039995;28;20174;-71
2021/04/12 01:12:31;;;;;;;0.73;0.60;;;4.40;99.90;;;;;;5047703;28;20188;-71
2021/04/12 01:15:10;;;;;;;0.98;0.98;;;4.40;99.90;;;;;;5036364;28;20680;-71
2021/04/12 01:17:54;;;;;;;1.38;1.35;;;4.40;99.90;;;;;;5037301;28;20174;-71
2021/04/12 01:20:41;;;;;;;0.45;0.45;;;4.40;99.90;;;;;;5055614;28;20540;-71
2021/04/12 01:23:44;;;;;;;1.58;1.50;;;4.30;99.90;;;;;;5049832;28;20201;-71
2021/04/12 01:26:31;;;;;;;0.50;0.40;;;4.20;99.90;;;;;;5034357;28;20194;-71
2021/04/12 01:29:15;;;;;;;0.80;0.80;;;4.20;99.90;;;;;;5047280;28;20260;-71
2021/04/12 01:31:47;;;;;;;0.85;0.85;;;4.20;99.90;;;;;;5055522;28;20246;-71
2021/04/12 01:34:30;;;;;;;0.52;0.52;;;4.10;99.90;;;;;;5041468;28;20185;-71
2021/04/12 01:37:05;;;;;;;2.03;2.03;;;4.10;99.90;;;;;;5054858;28;20204;-71
2021/04/12 01:40:17;;;;;;;1.25;0.60;;;4.10;99.90;;;;;;5040098;28;20184;-71
2021/04/12 01:43:02;;;;;;;0.85;0.60;;;4.00;99.90;;;;;;5033359;28;20247;-70
2021/04/12 01:45:42;;;;;;;0.40;0.40;;;4.00;99.90;;;;;;5034913;28;20189;-71
2021/04/12 01:48:20;;;;;;;1.02;1.02;;;4.00;99.90;;;;;;5038760;28;20195;-71
2021/04/12 01:51:17;;;;;;;1.95;0.85;;;4.00;99.90;;;;;;5052125;28;20200;-71
2021/04/12 01:54:04;;;;;;;0.63;0.57;;;3.90;99.90;;;;;;5046614;28;20663;-70
2021/04/12 01:57:03;;;;;;;1.08;1.08;;;3.90;99.90;;;;;;5045293;28;20268;-70
2021/04/12 01:59:47;;;;;;;0.90;0.90;;;3.90;99.90;;;;;;5054188;28;20586;-71
2021/04/12 02:02:20;;;;;;;1.08;1.08;;;3.90;99.90;;;;;;5055090;28;20575;-71
2021/04/12 02:05:20;;;;;;;1.50;1.45;;;3.90;99.90;;;;;;5050655;28;20256;-71
2021/04/12 02:08:10;;;;;;;0.82;0.82;;;3.80;99.90;;;;;;5052559;28;20192;-71
2021/04/12 02:10:54;;;;;;;0.60;0.60;;;3.80;99.90;;;;;;5047179;28;20174;-71
2021/04/12 02:13:23;;;;;;;1.02;1.02;;;3.80;99.90;;;;;;5052960;28;20208;-71
2021/04/12 02:16:22;;;;;;;0.90;0.90;;;3.80;99.90;;;;;;5054387;28;20196;-71
2021/04/12 02:19:22;;;;;;;0.50;0.50;;;3.80;99.90;;;;;;5041568;28;20174;-71
2021/04/12 02:22:21;;;;;;;0.70;0.70;;;3.80;99.90;;;;;;5034819;28;20219;-71
2021/04/12 02:25:09;;;;;;;0.40;0.40;;;3.80;99.90;;;;;;5034521;28;20170;-70
2021/04/12 02:27:42;;;;;;;0.90;0.90;;;3.80;99.90;;;;;;5035424;28;20193;-71
2021/04/12 02:30:20;;;;;;;1.27;1.27;;;3.80;99.90;;;;;;5054118;28;20570;-71
2021/04/12 02:33:18;;;;;;;2.30;0.93;;;3.80;99.90;;;;;;5037630;28;20566;-71
2021/04/12 02:35:58;;;;;;;1.38;1.25;;;3.80;99.90;;;;;;5053928;28;20200;-71
2021/04/12 02:38:37;;;;;;;1.42;0.85;;;3.80;99.90;;;;;;5045943;28;20509;-71
2021/04/12 02:41:30;;;;;;;1.35;1.35;;;3.70;99.90;;;;;;5032571;28;20181;-71
2021/04/12 02:44:17;;;;;;;0.75;0.75;;;3.70;99.90;;;;;;5044154;28;20234;-71
2021/04/12 02:47:09;;;;;;;1.13;1.13;;;3.70;99.90;;;;;;5051725;28;20254;-71
2021/04/12 02:49:57;;;;;;;1.52;1.02;;;3.70;99.90;;;;;;5036732;28;20681;-71
2021/04/12 02:52:36;;;;;;;0.40;0.40;;;3.70;99.90;;;;;;5034186;28;20170;-71
2021/04/12 02:55:39;;;;;;;0.93;0.70;;;3.70;99.90;;;;;;5053357;28;20540;-71
2021/04/12 02:58:42;;;;;;;0.95;0.60;;;3.70;99.90;;;;;;5036664;28;20187;-71
2021/04/12 03:01:14;;;;;;;0.80;0.80;;;3.70;99.90;;;;;;5054017;28;20177;-71
2021/04/12 03:03:46;;;;;;;0.40;0.40;;;3.70;99.90;;;;;;5045121;28;20201;-71
2021/04/12 03:06:54;;;;;;;1.67;1.27;;;3.70;99.90;;;;;;5033672;28;20212;-70
2021/04/12 03:09:22;;;;;;;1.27;1.00;;;3.70;99.90;;;;;;5046878;28;20247;-71
2021/04/12 03:12:05;;;;;;;0.80;0.80;;;3.70;99.90;;;;;;5037594;28;20185;-71
2021/04/12 03:14:49;;;;;;;1.42;1.33;;;3.70;99.90;;;;;;5045984;28;20696;-71
2021/04/12 03:17:54;;;;;;;1.20;0.82;;;3.60;99.90;;;;;;5053445;28;20648;-71
2021/04/12 03:20:42;;;;;;;4.10;2.58;;;3.60;99.90;;;;;;5048761;28;20670;-71
2021/04/12 03:23:32;;;;;;;1.05;1.05;;;3.60;99.90;;;;;;5050518;28;20197;-72
2021/04/12 03:26:22;;;;;;;0.73;0.73;;;3.70;99.90;;;;;;5033141;28;20193;-72
2021/04/12 03:29:06;;;;;;;1.05;0.95;;;3.70;99.90;;;;;;5040728;28;20215;-71
2021/04/12 03:32:03;;;;;;;1.67;1.58;;;3.70;99.90;;;;;;5053355;28;20165;-72
2021/04/12 03:35:08;;;;;;;0.60;0.60;;;3.70;99.90;;;;;;5040165;28;20174;-71
2021/04/12 03:37:56;;;;;;;3.05;2.70;;;3.70;99.90;;;;;;5033421;28;20186;-71
2021/04/12 03:40:32;;;;;;;0.88;0.73;;;3.70;99.90;;;;;;5033551;28;20224;-71
2021/04/12 03:43:33;;;;;;;0.60;0.60;;;3.70;99.90;;;;;;5034496;28;20205;-71
2021/04/12 03:46:36;;;;;;;1.70;1.60;;;3.60;99.90;;;;;;5052723;28;20272;-71
2021/04/12 03:49:14;;;;;;;1.00;0.90;;;3.60;99.90;;;;;;5043411;28;20169;-70
2021/04/12 03:52:17;;;;;;;0.85;0.85;;;3.60;99.90;;;;;;5033116;28;20615;-71
2021/04/12 03:55:20;;;;;;;1.33;1.23;;;3.60;99.90;;;;;;5051344;28;20173;-71
2021/04/12 03:58:13;;;;;;;2.75;2.65;;;3.60;99.90;;;;;;5056929;28;20246;-71
2021/04/12 04:01:04;;;;;;;1.02;1.02;;;3.60;99.90;;;;;;5037438;28;20170;-71
2021/04/12 04:03:35;;;;;;;2.05;1.10;;;3.60;99.90;;;;;;5038361;28;20225;-72
2021/04/12 04:06:19;;;;;;;1.52;1.48;;;3.60;99.90;;;;;;5036767;28;20212;-71
2021/04/12 04:09:16;;;;;;;0.85;0.82;;;3.60;99.90;;;;;;5039096;28;20536;-71
2021/04/12 04:12:06;;;;;;;0.45;0.45;;;3.60;99.90;;;;;;5039249;28;20213;-71
2021/04/12 04:15:22;;;;;;;0.60;0.60;;;3.60;99.90;;;;;;5055423;28;20166;-70
2021/04/12 04:18:15;;;;;;;3.05;2.83;;;3.60;99.90;;;;;;5042989;28;20590;-71
2021/04/12 04:20:49;;;;;;;0.60;0.60;;;3.60;99.90;;;;;;5036896;28;20201;-70
2021/04/12 04:23:18;;;;;;;1.08;0.77;;;3.70;99.90;;;;;;5051171;28;20188;-70
2021/04/12 04:26:08;;;;;;;2.08;1.50;;;3.60;99.90;;;;;;5055019;28;20189;-71
2021/04/12 04:29:03;;;;;;;2.95;1.20;;;3.60;99.90;;;;;;5039597;28;20205;-71
2021/04/12 04:32:06;;;;;;;1.05;1.05;;;3.60;99.90;;;;;;5037827;28;20166;-70
2021/04/12 04:35:10;;;;;;;1.30;0.93;;;3.50;99.90;;;;;;5034974;28;20173;-71
2021/04/12 04:37:45;;;;;;;2.72;1.55;;;3.50;99.90;;;;;;5035608;28;20228;-71
2021/04/12 04:40:31;;;;;;;1.35;1.25;;;3.50;99.90;;;;;;5036521;28;20162;-70
2021/04/12 04:43:13;;;;;;;2.28;1.58;;;3.50;99.90;;;;;;5041328;28;20652;-71
2021/04/12 04:45:55;;;;;;;1.05;0.95;;;3.50;99.90;;;;;;5036145;28;20193;-70
2021/04/12 04:48:39;;;;;;;0.70;0.70;;;3.50;99.90;;;;;;5049670;28;20169;-71
2021/04/12 04:51:26;;;;;;;1.08;1.08;;;3.50;99.90;;;;;;5056189;28;20528;-71
2021/04/12 04:53:55;;;;;;;2.05;1.77;;;3.50;99.90;;;;;;5038183;28;20182;-71
2021/04/12 04:56:39;;;;;;;1.40;1.25;;;3.50;99.90;;;;;;5036156;28;20277;-71
2021/04/12 04:59:16;;;;;;;2.17;2.13;;;3.50;99.90;;;;;;5054397;28;20539;-71
2021/04/12 05:02:03;;;;;;;0.75;0.75;;;3.50;99.90;;;;;;5056004;28;20176;-71
2021/04/12 05:05:00;;;;;;;0.98;0.98;;;3.50;99.90;;;;;;5035454;28;20166;-72
2021/04/12 05:07:41;;;;;;;0.52;0.52;;;3.50;99.90;;;;;;5034729;28;20255;-72
2021/04/12 05:10:44;;;;;;;1.60;1.50;;;3.40;99.90;;;;;;5036320;28;20177;-71
2021/04/12 05:13:28;;;;;;;2.75;1.45;;;3.40;99.90;;;;;;5045711;28;20180;-71
2021/04/12 05:16:19;;;;;;;1.58;1.58;;;3.40;99.90;;;;;;5054094;28;20200;-72
2021/04/12 05:19:27;;;;;;;1.10;1.10;;;3.50;99.90;;;;;;5053779;28;20226;-72
2021/04/12 05:22:17;;;;;;;3.30;2.28;;;3.50;99.90;;;;;;5056086;28;20550;-72
2021/04/12 05:25:09;;;;;;;1.52;1.52;;;3.50;99.90;;;;;;5035390;28;20232;-72
2021/04/12 05:27:38;;;;;;;2.05;1.25;;;3.50;99.90;;;;;;5050175;28;20276;-71
2021/04/12 05:30:34;;;;;;;1.85;1.15;;;3.60;99.90;;;;;;5035511;28;20228;-71
2021/04/12 05:33:16;;;;;;;0.50;0.50;;;3.60;99.90;;;;;;5042563;28;20177;-71
2021/04/12 05:35:54;;;;;;;1.10;1.08;;;3.60;99.90;;;;;;5055092;28;20276;-70
2021/04/12 05:38:56;;;;;;;2.67;1.13;;;3.60;99.90;;;;;;5053903;28;20263;-71
2021/04/12 05:41:44;;;;;;;0.63;0.63;;;3.60;99.90;;;;;;5043662;28;20603;-72
2021/04/12 05:44:40;;;;;;;2.45;1.45;;;3.60;99.90;;;;;;5041914;28;20337;-73
2021/04/12 05:47:19;;;;;;;5.97;1.80;;;3.60;99.90;;;;;;5053431;28;20204;-72
2021/04/12 05:49:48;;;;;;;0.95;0.75;;;3.60;99.90;;;;;;5044759;28;20220;-73
2021/04/12 05:52:38;;;;;;;1.48;1.08;;;3.60;99.90;;;;;;5054070;28;20543;-72
2021/04/12 05:55:10;;;;;;;5.10;2.80;;;3.60;99.90;;;;;;5053447;28;20170;-72
2021/04/12 05:57:54;;;;;;;1.83;1.67;;;3.60;99.90;;;;;;5046311;28;20190;-72
2021/04/12 06:00:29;;;;;;;1.02;1.02;;;3.60;99.90;;;;;;5052218;28;20267;-73
2021/04/12 06:03:00;;;;;;;3.22;1.23;;;3.60;99.90;;;;;;5034818;28;20185;-72
2021/04/12 06:05:35;;;;;;;0.90;0.90;;;3.60;99.90;;;;;;5050225;28;20174;-72
2021/04/12 06:08:28;;;;;;;1.50;1.40;;;3.60;99.90;;;;;;5053531;28;20177;-75
2021/04/12 06:11:33;;;;;;;0.68;0.68;;;3.60;99.90;;;;;;5044573;28;20169;-74
2021/04/12 06:14:10;;;;;;;1.10;0.95;;;3.60;99.90;;;;;;5033459;28;20221;-75
2021/04/12 06:17:13;;;;;;;2.55;1.50;;;3.60;99.90;;;;;;5037371;28;20198;-73
2021/04/12 06:19:56;;;;;;;1.77;1.67;;;3.50;99.90;;;;;;5035369;28;20174;-75
2021/04/12 06:22:41;;;;;;;1.38;1.27;;;3.50;99.90;;;;;;5062095;28;20242;-75
2021/04/12 06:25:49;;;;;;;1.38;1.38;;;3.60;99.90;;;;;;5072108;28;20591;-74
2021/04/12 06:28:36;;;;;;;1.60;1.50;;;3.60;99.90;;;;;;5052881;28;20185;-76
2021/04/12 06:31:29;;;;;;;1.40;1.05;;;3.60;99.90;;;;;;5053029;28;20173;-75
2021/04/12 06:34:00;;;;;;;1.70;0.82;;;3.70;99.90;;;;;;5056272;28;20207;-75
2021/04/12 06:36:48;;;;;;;1.00;0.98;;;3.70;99.90;;;;;;5043332;28;20542;-76
2021/04/12 06:39:32;;;;;;;1.98;1.75;;;3.70;99.90;;;;;;5036049;28;20174;-75
2021/04/12 06:42:32;;;;;;;2.15;1.17;;;3.80;99.90;;;;;;5034311;28;20193;-73
2021/04/12 06:45:12;;;;;;;1.77;1.67;;;3.90;99.90;;;;;;5044433;28;20173;-74
2021/04/12 06:47:56;;;;;;;1.45;1.35;;;4.00;99.90;;;;;;5046800;28;20182;-73
2021/04/12 06:50:39;;;;;;;2.60;1.42;;;4.20;99.90;;;;;;5045635;28;20635;-72
2021/04/12 06:53:26;;;;;;;1.88;1.77;;;4.30;99.90;;;;;;5036691;28;20182;-73
2021/04/12 06:55:55;;;;;;;1.98;1.88;;;4.40;99.90;;;;;;5032125;28;20624;-72
2021/04/12 06:58:32;;;;;;;1.58;1.50;;;4.50;99.90;;;;;;5033546;28;20200;-71
2021/04/12 07:01:17;;;;;;;3.15;2.58;;;4.70;99.90;;;;;;5048490;28;20181;-70
2021/04/12 07:04:04;;;;;;;2.10;1.50;;;4.60;99.90;;;;;;5073393;28;20188;-71
2021/04/12 07:06:39;;;;;;;2.08;1.40;;;4.60;99.90;;;;;;5060217;28;20248;-75
2021/04/12 07:09:38;;;;;;;1.60;1.50;;;4.60;99.90;;;;;;5042062;28;20256;-74
2021/04/12 07:12:51;;;;;;;3.05;2.75;;;4.60;99.90;;;;;;5053926;28;20173;-72
2021/04/12 07:15:35;;;;;;;1.30;1.30;;;4.50;99.90;;;;;;5040385;28;20225;-72
2021/04/12 07:18:19;;;;;;;1.65;1.55;;;4.40;99.90;;;;;;5053289;28;20196;-73
2021/04/12 07:21:17;;;;;;;4.25;3.13;;;4.50;99.90;;;;;;5036682;28;20257;-72
2021/04/12 07:24:11;;;;;;;5.93;2.10;;;4.50;99.90;;;;;;5052392;28;20197;-74
2021/04/12 07:27:15;;;;;;;4.00;3.10;;;4.40;99.90;;;;;;5051221;28;20524;-71
2021/04/12 07:30:12;;;;;;;0.93;0.93;;;4.40;99.90;;;;;;5036810;28;20196;-72
2021/04/12 07:32:43;;;;;;;0.88;0.88;;;4.40;99.90;;;;;;5042353;28;20259;-72
2021/04/12 07:36:04;;;;;;;0.65;0.60;;;4.40;99.90;;;;;;5032940;28;20198;-72
2021/04/12 07:39:07;;;;;;;4.13;2.08;;;4.40;99.90;;;;;;4987307;28;20598;-71
2021/04/12 07:41:41;;;;;;;2.03;1.80;;;4.50;99.90;;;;;;5040999;28;20644;-70
2021/04/12 07:44:35;;;;;;;0.98;0.98;;;4.50;99.90;;;;;;5051479;28;20199;-71
2021/04/12 07:47:38;;;;;;;1.27;1.27;;;4.50;99.90;;;;;;5040247;28;20202;-70
2021/04/12 07:50:55;;;;;;;3.40;1.33;;;4.50;99.90;;;;;;5031974;28;20170;-71
2021/04/12 07:53:24;;;;;;;4.05;2.03;;;4.60;99.90;;;;;;5031648;28;20756;-71
2021/04/12 07:56:05;;;;;;;2.95;2.70;;;4.60;99.90;;;;;;5040899;28;20193;-71
2021/04/12 07:58:45;;;;;;;2.60;2.40;;;4.60;99.90;;;;;;5042504;28;20208;-71
2021/04/12 08:01:35;;;;;;;1.05;1.05;;;4.70;99.90;;;;;;5046812;28;20256;-69
2021/04/12 08:04:17;;;;;;;1.92;1.83;;;4.70;99.90;;;;;;5046209;28;20184;-70
2021/04/12 08:07:13;;;;;;;3.60;2.45;;;4.80;99.90;;;;;;5049826;28;20327;-71
2021/04/12 08:10:16;;;;;;;3.85;3.60;;;4.90;99.90;;;;;;5049248;28;20279;-71
2021/04/12 08:13:00;;;;;;;2.60;2.10;;;5.00;99.90;;;;;;5032719;28;20173;-71
2021/04/12 08:15:45;;;;;;;4.70;4.03;;;5.20;99.90;;;;;;5039733;28;20181;-72
2021/04/12 08:18:53;;;;;;;2.40;2.13;;;5.30;99.90;;;;;;5050904;28;20706;-72
2021/04/12 08:21:35;;;;;;;9.27;3.58;;;5.40;99.90;;;;;;5040488;28;20534;-71
2021/04/12 08:24:42;;;;;;;4.78;2.60;;;5.50;99.90;;;;;;5032375;28;20287;-70
2021/04/12 08:27:23;;;;;;;1.50;1.23;;;5.60;99.90;;;;;;5052176;28;20201;-66
2021/04/12 08:29:55;;;;;;;3.22;2.92;;;5.80;99.90;;;;;;5050122;28;20169;-70
2021/04/12 08:33:09;;;;;;;1.60;1.15;;;6.00;99.90;;;;;;5047732;28;20571;-70
2021/04/12 08:35:59;;;;;;;2.33;1.50;;;6.20;99.90;;;;;;5030987;28;20312;-71
2021/04/12 08:38:49;;;;;;;3.05;2.75;;;6.40;99.90;;;;;;5034072;28;20194;-67
2021/04/12 08:41:44;;;;;;;1.88;1.70;;;6.60;99.90;;;;;;5036497;28;20537;-69
2021/04/12 08:44:09;;;;;;;5.53;2.45;;;6.70;99.90;;;;;;5044280;28;20181;-69
2021/04/12 08:47:03;;;;;;;1.47;1.37;;;6.80;99.90;;;;;;5046633;28;20198;-67
2021/04/12 08:50:03;;;;;;;1.65;1.30;;;6.80;99.90;;;;;;5040820;28;20175;-70
2021/04/12 08:52:56;;;;;;;4.93;1.92;;;7.00;99.90;;;;;;5040715;28;20543;-68
2021/04/12 08:55:46;;;;;;;1.75;1.65;;;7.10;99.90;;;;;;5052681;28;20173;-68
2021/04/12 08:58:36;;;;;;;3.42;2.25;;;7.20;99.90;;;;;;5055061;28;20595;-66
2021/04/12 09:01:15;;;;;;;2.28;2.17;;;7.50;99.90;;;;;;5052252;28;20181;-68
2021/04/12 09:04:09;;;;;;;2.00;1.50;;;7.70;99.90;;;;;;5051703;28;20198;-70
2021/04/12 09:06:43;;;;;;;3.90;2.42;;;7.90;99.90;;;;;;5035709;28;20190;-70
2021/04/12 09:09:29;;;;;;;6.65;2.30;;;7.90;99.90;;;;;;5040388;28;20175;-70
2021/04/12 09:12:19;;;;;;;2.20;1.30;;;8.00;99.90;;;;;;5054229;28;20179;-68
2021/04/12 09:15:03;;;;;;;2.80;1.90;;;7.90;99.90;;;;;;5043210;28;20494;-69
2021/04/12 09:17:41;;;;;;;2.78;2.58;;;7.80;99.90;;;;;;5035517;28;20250;-68
2021/04/12 09:20:44;;;;;;;2.45;2.20;;;7.70;99.90;;;;;;5049546;28;20177;-69
2021/04/12 09:23:42;;;;;;;1.88;1.55;;;7.60;99.90;;;;;;5044135;28;20197;-69
2021/04/12 09:26:24;;;;;;;2.03;1.80;;;7.60;99.90;;;;;;5044633;28;20200;-69
2021/04/12 09:29:23;;;;;;;3.58;2.22;;;7.50;99.90;;;;;;5042467;28;20264;-68
2021/04/12 09:32:30;;;;;;;1.85;1.65;;;7.40;99.90;;;;;;5045630;28;20640;-69
2021/04/12 09:35:04;;;;;;;3.38;2.38;;;7.30;99.90;;;;;;5044166;28;20188;-69
2021/04/12 09:38:02;;;;;;;2.67;1.42;;;7.30;99.90;;;;;;5044309;28;20223;-67
2021/04/12 09:41:03;;;;;;;4.55;1.33;;;7.20;99.90;;;;;;5044087;28;20188;-70
2021/04/12 09:43:47;;;;;;;3.30;1.85;;;7.30;99.90;;;;;;5037898;28;20203;-68
2021/04/12 09:46:37;;;;;;;2.50;2.03;;;7.40;99.90;;;;;;5034425;28;20195;-70
2021/04/12 09:49:25;;;;;;;5.60;2.55;;;7.40;99.90;;;;;;5048261;28;20245;-69
2021/04/12 09:52:14;;;;;;;2.90;1.08;;;7.40;99.90;;;;;;5033903;28;20171;-69
2021/04/12 09:54:55;;;;;;;3.95;2.20;;;7.40;99.90;;;;;;5048681;28;20189;-69
2021/04/12 09:57:41;;;;;;;4.25;2.10;;;7.50;99.90;;;;;;5053423;28;20713;-68
2021/04/12 10:00:26;;;;;;;6.93;1.77;;;7.60;99.90;;;;;;5043110;28;20201;-67
2021/04/12 10:03:17;;;;;;;3.83;1.70;;;7.70;99.90;;;;;;5051308;28;20200;-69
2021/04/12 10:05:58;;;;;;;3.13;1.65;;;7.90;99.90;;;;;;5046438;28;20200;-70
2021/04/12 10:08:30;;;;;;;5.68;2.17;;;8.00;99.90;;;;;;5074822;28;20161;-68
2021/04/12 10:11:17;;;;;;;5.07;2.17;;;8.20;99.90;;;;;;5060625;28;20176;-70
2021/04/12 10:14:16;;;;;;;4.07;1.50;;;8.20;99.90;;;;;;5052413;28;20268;-71
2021/04/12 10:17:00;;;;;;;4.53;2.08;;;8.20;99.90;;;;;;5034898;28;20243;-71
2021/04/12 10:19:35;;;;;;;4.25;1.95;;;8.30;99.90;;;;;;5034834;28;20246;-68
2021/04/12 10:22:10;;;;;;;5.25;1.73;;;8.30;99.90;;;;;;5054439;28;20176;-70
2021/04/12 10:24:57;;;;;;;5.35;2.08;;;8.40;99.90;;;;;;5052536;28;20172;-68
2021/04/12 10:27:48;;;;;;;4.07;1.40;;;8.50;99.90;;;;;;5034485;28;20199;-70
2021/04/12 10:30:26;;;;;;;4.78;2.35;;;8.50;99.90;;;;;;5040112;28;20181;-73
2021/04/12 10:33:03;;;;;;;4.30;1.70;;;8.40;99.90;;;;;;5054250;28;20167;-74
2021/04/12 10:35:47;;;;;;;4.28;1.77;;;8.50;99.90;;;;;;5045921;28;20182;-74
2021/04/12 10:38:37;;;;;;;4.72;1.83;;;8.50;99.90;;;;;;5039559;28;20177;-74
2021/04/12 10:41:26;;;;;;;5.03;1.83;;;8.50;99.90;;;;;;5035630;28;20668;-75
2021/04/12 10:44:08;;;;;;;4.80;2.05;;;8.60;99.90;;;;;;5036370;28;20201;-73
2021/04/12 10:46:45;;;;;;;4.40;1.48;;;8.70;99.90;;;;;;5032839;28;20209;-72
2021/04/12 10:49:28;;;;;;;6.10;2.00;;;8.70;99.90;;;;;;5033931;28;20177;-72
2021/04/12 10:52:05;;;;;;;4.43;2.15;;;8.80;99.90;;;;;;5042642;28;20162;-75
2021/04/12 10:55:09;;;;;;;5.20;1.95;;;8.90;99.90;;;;;;5033623;28;20200;-74
2021/04/12 10:58:01;;;;;;;4.75;2.08;;;9.10;99.90;;;;;;5034424;28;20203;-74
2021/04/12 11:00:44;;;;;;;4.88;1.90;;;9.30;99.90;;;;;;5034774;28;20182;-74
2021/04/12 11:03:34;;;;;;;10.52;2.92;;;9.20;99.40;;;;;;5042688;28;20217;-71
2021/04/12 11:06:54;;;;;;;4.40;1.55;;;9.20;99.80;;;;;;5047440;28;20193;-73
2021/04/12 11:09:32;;;;;;;6.25;1.80;;;9.40;99.90;;;;;;5024355;28;20186;-72
2021/04/12 11:12:09;;;;;;;4.70;1.65;;;9.60;98.20;;;;;;5034063;28;20169;-74
2021/04/12 11:14:46;;;;;;;5.32;1.85;;;9.70;99.20;;;;;;5049173;28;20667;-73
2021/04/12 11:17:17;;;;;;;4.78;1.92;;;9.80;97.70;;;;;;5053404;28;20674;-75
2021/04/12 11:20:06;;;;;;;5.20;2.15;;;9.80;97.80;;;;;;5035166;28;20174;-75
2021/04/12 11:22:56;;;;;;;5.07;2.33;;;9.90;96.70;;;;;;5042922;28;20221;-74
2021/04/12 11:25:27;;;;;;;3.80;1.23;;;9.80;96.80;;;;;;5031764;28;20170;-74
2021/04/12 11:27:56;;;;;;;5.97;1.65;;;9.70;96.80;;;;;;5036369;28;20177;-74
2021/04/12 11:30:49;;;;;;;4.82;2.50;;;9.70;95.90;;;;;;5041306;28;20170;-73
2021/04/12 11:33:16;;;;;;;6.25;2.10;;;9.50;94.40;;;;;;5036643;28;20567;-73
2021/04/12 11:36:19;;;;;;;3.85;1.25;;;9.40;95.30;;;;;;5051437;28;20236;-74
2021/04/12 11:39:03;;;;;;;4.28;1.48;;;9.50;96.50;;;;;;5044420;28;20232;-71
2021/04/12 11:41:41;;;;;;;4.60;1.90;;;9.80;94.80;;;;;;5033111;28;20170;-75
2021/04/12 11:44:17;;;;;;;4.60;1.80;;;10.10;92.80;;;;;;5042274;28;20185;-76
2021/04/12 11:46:57;;;;;;;5.43;2.00;;;10.10;93.20;;;;;;5041712;28;20235;-75
2021/04/12 11:49:35;;;;;;;4.00;1.45;;;10.00;92.50;;;;;;5033096;28;20169;-72
2021/04/12 11:52:17;;;;;;;4.47;1.60;;;9.90;92.90;;;;;;5033027;28;20177;-74
2021/04/12 11:55:04;;;;;;;4.95;1.30;;;9.80;93.70;;;;;;5032895;28;20181;-70
2021/04/12 11:57:43;;;;;;;5.03;1.90;;;9.70;93.70;;;;;;5032823;28;20198;-71
2021/04/12 12:00:15;;;;;;;5.07;2.17;;;9.60;93.70;;;;;;5044838;28;20173;-71
2021/04/12 12:03:32;;;;;;;13.02;2.88;;;9.40;93.90;;;;;;5053106;28;20185;-69
2021/04/12 12:06:32;;;;;;;4.80;1.63;;;9.50;95.30;;;;;;5039363;28;20205;-70
2021/04/12 12:09:06;;;;;;;6.40;2.80;;;9.50;94.30;;;;;;5028282;28;20522;-75
2021/04/12 12:12:05;;;;;;;4.10;1.80;;;9.70;94.00;;;;;;5033077;28;20208;-69
2021/04/12 12:14:41;;;;;;;5.10;1.98;;;10.00;93.10;;;;;;5032401;28;20256;-71
2021/04/12 12:17:21;;;;;;;5.20;1.67;;;10.00;91.80;;;;;;5038222;28;20236;-69
2021/04/12 12:19:54;;;;;;;4.65;1.63;;;9.90;92.20;;;;;;5056898;28;20176;-66
2021/04/12 12:22:23;;;;;;;6.93;2.65;;;9.90;92.40;;;;;;5053354;28;20664;-68
2021/04/12 12:25:08;;;;;;;6.50;2.00;;;9.80;91.90;;;;;;5036405;28;20173;-73
2021/04/12 12:27:41;;;;;;;4.55;1.92;;;9.70;90.90;;;;;;5039396;28;20192;-69
2021/04/12 12:30:31;;;;;;;4.25;1.92;;;9.70;90.80;;;;;;5056622;28;20287;-69
2021/04/12 12:33:03;;;;;;;5.65;2.50;;;9.80;91.20;;;;;;5047994;28;20641;-69
2021/04/12 12:36:08;;;;;;;5.88;2.63;;;9.90;90.60;;;;;;5038133;28;20186;-69
2021/04/12 12:38:59;;;;;;;5.10;2.10;;;9.70;90.50;;;;;;5046772;28;20189;-69
2021/04/12 12:41:29;;;;;;;4.10;1.88;;;9.80;92.40;;;;;;5051372;28;20210;-67
2021/04/12 12:44:06;;;;;;;6.80;2.90;;;9.90;91.10;;;;;;5043869;28;20607;-72
2021/04/12 12:46:34;;;;;;;3.60;1.40;;;9.80;90.70;;;;;;5045588;28;20198;-71
2021/04/12 12:49:28;;;;;;;7.15;2.30;;;9.70;90.60;;;;;;5045272;28;20176;-69
2021/04/12 12:51:58;;;;;;;4.80;2.00;;;9.80;90.90;;;;;;5044806;28;20640;-71
2021/04/12 12:54:42;;;;;;;4.68;1.83;;;9.90;90.40;;;;;;5041583;28;20186;-71
2021/04/12 12:57:30;;;;;;;4.03;1.40;;;9.70;90.00;;;;;;5034796;28;20552;-69
2021/04/12 13:00:17;;;;;;;4.00;1.10;;;9.60;90.50;;;;;;5036022;28;20548;-70
2021/04/12 13:02:43;;;;;;;5.00;2.05;;;9.50;91.40;;;;;;5038439;28;20239;-70
2021/04/12 13:05:21;;;;;;;4.60;2.05;;;9.60;92.60;;;;;;5054309;28;20636;-70
2021/04/12 13:07:49;;;;;;;5.40;2.20;;;9.60;91.70;;;;;;5053810;28;20166;-71
2021/04/12 13:10:37;;;;;;;4.78;1.92;;;9.60;92.20;;;;;;5045046;28;20197;-70
2021/04/12 13:13:15;;;;;;;4.22;2.03;;;9.50;91.10;;;;;;5046986;28;20234;-70
2021/04/12 13:15:41;;;;;;;4.68;2.03;;;9.50;91.80;;;;;;5055442;28;20238;-70
2021/04/12 13:18:22;;;;;;;4.13;1.67;;;9.40;92.10;;;;;;5052198;28;20580;-70
2021/04/12 13:20:56;;;;;;;5.28;1.92;;;9.40;90.40;;;;;;5041350;28;20177;-74
2021/04/12 13:23:23;;;;;;;4.35;1.23;;;9.40;90.60;;;;;;5035663;28;20201;-70
2021/04/12 13:25:51;;;;;;;3.97;1.27;;;9.50;90.60;;;;;;5035006;28;20205;-69
2021/04/12 13:28:38;;;;;;;5.95;1.75;;;9.70;88.30;;;;;;5047456;28;20170;-70
2021/04/12 13:31:16;;;;;;;4.47;1.60;;;9.80;86.80;;;;;;5055190;28;20180;-71
2021/04/12 13:34:06;;;;;;;5.78;1.60;;;10.00;88.80;;;;;;5054354;28;20177;-70
2021/04/12 13:36:43;;;;;;;4.32;1.55;;;10.10;86.80;;;;;;5040077;28;20210;-69
2021/04/12 13:39:21;;;;;;;4.10;1.40;;;10.30;87.90;;;;;;5053103;28;20200;-67
2021/04/12 13:41:48;;;;;;;3.80;1.20;;;10.60;88.30;;;;;;5055159;28;20509;-68
2021/04/12 13:44:22;;;;;;;6.22;2.00;;;10.70;82.80;;;;;;5035939;28;20236;-70
2021/04/12 13:47:03;;;;;;;4.95;1.77;;;10.80;80.60;;;;;;5042227;28;20189;-70
2021/04/12 13:49:42;;;;;;;4.95;1.50;;;11.00;81.90;;;;;;5044385;28;20167;-69
2021/04/12 13:52:22;;;;;;;4.78;1.50;;;11.00;81.90;;;;;;5041210;28;20524;-70
2021/04/12 13:55:06;;;;;;;6.40;1.50;;;11.20;78.60;;;;;;5043050;28;20179;-71
2021/04/12 13:57:53;;;;;;;3.72;1.25;;;11.20;77.90;;;;;;5043749;28;20213;-71
2021/04/12 14:00:24;;;;;;;4.93;1.92;;;11.10;77.40;;;;;;5043092;28;20259;-70
2021/04/12 14:02:55;;;;;;;5.07;1.58;;;10.90;80.00;;;;;;5041923;28;20223;-68
2021/04/12 14:05:35;;;;;;;3.85;1.00;;;10.70;81.40;;;;;;5042051;28;20170;-68
2021/04/12 14:08:23;;;;;;;4.18;1.50;;;10.60;80.90;;;;;;5045801;28;20173;-68
2021/04/12 14:10:55;;;;;;;4.45;1.48;;;10.60;80.60;;;;;;5044498;28;20177;-67
2021/04/12 14:13:34;;;;;;;4.35;1.35;;;10.60;80.20;;;;;;5041609;28;20529;-70
2021/04/12 14:16:17;;;;;;;4.80;1.30;;;10.60;80.80;;;;;;5042253;28;20201;-70
2021/04/12 14:18:47;;;;;;;4.40;1.08;;;10.60;80.50;;;;;;5042937;28;20632;-70
2021/04/12 14:21:26;;;;;;;5.60;1.27;;;10.60;81.80;;;;;;5040863;28;20907;-70
2021/04/12 14:24:19;;;;;;;4.20;1.17;;;10.50;81.20;;;;;;5041398;28;20197;-71
2021/04/12 14:27:05;;;;;;;3.55;1.10;;;10.50;81.20;;;;;;5041292;28;20579;-69
2021/04/12 14:29:43;;;;;;;4.65;1.33;;;10.50;81.90;;;;;;5044005;28;20596;-69
2021/04/12 14:32:15;;;;;;;3.60;1.13;;;10.50;81.80;;;;;;5041923;28;20517;-71